createdAt,value
2019-04-22T00:02:12.812Z,54.00
2019-04-22T00:04:56.178Z,54.20
2019-04-22T00:07:35.882Z,54.10
2019-04-22T00:10:16.204Z,54.30
2019-04-22T00:12:43.931Z,53.90
2019-04-22T00:15:12.714Z,54.20
2019-04-22T00:17:53.778Z,54.10
2019-04-22T00:20:14.706Z,53.90
2019-04-22T00:22:45.982Z,53.90
2019-04-22T00:25:32.962Z,53.90
2019-04-22T00:27:56.409Z,54.10
2019-04-22T00:30:33.930Z,54.00
2019-04-22T00:32:55.535Z,53.90
2019-04-22T00:35:29.528Z,54.20
2019-04-22T00:38:11.460Z,54.20
2019-04-22T00:43:04.978Z,53.80
2019-04-22T00:45:44.592Z,54.00
2019-04-22T00:48:16.422Z,54.20
2019-04-22T00:50:46.683Z,54.00
2019-04-22T00:53:26.558Z,54.10
2019-04-22T00:56:11.127Z,54.10
2019-04-22T00:58:42.107Z,54.20
2019-04-22T01:01:17.504Z,54.00
2019-04-22T01:03:50.421Z,54.10
2019-04-22T01:06:17.314Z,54.20
2019-04-22T01:08:53.016Z,54.30
2019-04-22T01:11:22.709Z,54.50
2019-04-22T01:13:50.185Z,54.60
2019-04-22T01:16:22.620Z,54.40
2019-04-22T01:18:57.448Z,54.40
2019-04-22T01:21:32.044Z,54.50
2019-04-22T01:23:59.671Z,54.50
2019-04-22T01:26:27.150Z,54.80
2019-04-22T01:28:56.353Z,54.80
2019-04-22T01:31:20.321Z,55.40
2019-04-22T01:34:03.043Z,54.80
2019-04-22T01:36:45.683Z,54.90
2019-04-22T01:39:15.377Z,54.80
2019-04-22T01:41:55.088Z,54.90
2019-04-22T01:46:49.417Z,54.90
2019-04-22T01:49:23.697Z,54.80
2019-04-22T01:52:02.924Z,54.90
2019-04-22T01:54:29.808Z,55.10
2019-04-22T01:56:57.103Z,55.00
2019-04-22T01:59:22.463Z,55.00
2019-04-22T02:02:02.971Z,55.20
2019-04-22T02:04:39.754Z,55.00
2019-04-22T02:07:01.935Z,55.20
2019-04-22T02:09:38.584Z,55.30
2019-04-22T02:12:06.249Z,55.40
2019-04-22T02:14:41.074Z,55.30
2019-04-22T02:17:21.076Z,55.40
2019-04-22T02:19:50.569Z,55.30
2019-04-22T02:22:17.634Z,55.30
2019-04-22T02:24:46.819Z,55.30
2019-04-22T02:27:27.427Z,55.30
2019-04-22T02:29:47.286Z,55.50
2019-04-22T02:35:11.058Z,55.40
2019-04-22T02:37:22.887Z,55.70
2019-04-22T02:42:30.012Z,55.70
2019-04-22T02:45:20.949Z,55.60
2019-04-22T02:47:27.073Z,55.90
2019-04-22T02:50:05.194Z,55.90
2019-04-22T02:55:07.168Z,55.90
2019-04-22T03:03:01.067Z,56.00
2019-04-22T03:05:27.988Z,56.10
2019-04-22T03:10:29.862Z,56.00
2019-04-22T03:12:51.617Z,56.00
2019-04-22T03:15:21.657Z,56.70
2019-04-22T03:20:27.439Z,56.20
2019-04-22T03:23:05.959Z,56.20
2019-04-22T03:28:18.684Z,56.30
2019-04-22T03:35:44.998Z,56.50
2019-04-22T03:43:15.656Z,56.60
2019-04-22T03:45:51.461Z,56.50
2019-04-22T03:51:11.996Z,56.70
2019-04-22T03:53:33.495Z,56.70
2019-04-22T03:55:59.807Z,56.60
2019-04-22T03:58:21.453Z,56.70
2019-04-22T04:03:22.781Z,57.00
2019-04-22T04:06:00.030Z,56.80
2019-04-22T04:10:57.560Z,57.30
2019-04-22T04:13:34.075Z,56.90
2019-04-22T04:16:04.724Z,57.00
2019-04-22T04:18:58.176Z,56.90
2019-04-22T04:21:22.229Z,57.00
2019-04-22T04:23:50.306Z,57.00
2019-04-22T04:26:17.286Z,57.20
2019-04-22T04:31:25.119Z,57.40
2019-04-22T04:33:46.591Z,57.50
2019-04-22T04:36:23.871Z,57.60
2019-04-22T04:38:51.884Z,57.50
2019-04-22T04:41:29.069Z,57.50
2019-04-22T04:56:38.492Z,57.80
2019-04-22T04:59:19.505Z,58.00
2019-04-22T05:01:35.457Z,58.00
2019-04-22T05:04:40.892Z,58.20
2019-04-22T05:06:44.981Z,59.00
2019-04-22T05:09:15.069Z,58.70
2019-04-22T05:12:03.403Z,58.30
2019-04-22T05:14:14.461Z,58.40
2019-04-22T05:19:16.008Z,58.60
2019-04-22T05:21:47.186Z,58.60
2019-04-22T05:24:29.897Z,59.10
2019-04-22T05:27:05.286Z,58.80
2019-04-22T05:29:23.483Z,59.20
2019-04-22T05:31:55.319Z,59.00
2019-04-22T05:34:22.793Z,58.90
2019-04-22T05:36:55.412Z,58.90
2019-04-22T05:39:25.044Z,59.00
2019-04-22T05:42:03.142Z,59.00
2019-04-22T05:44:32.892Z,59.30
2019-04-22T05:47:01.581Z,59.20
2019-04-22T05:49:28.969Z,59.30
2019-04-22T05:52:02.771Z,59.40
2019-04-22T05:54:32.690Z,59.50
2019-04-22T05:57:12.412Z,59.60
2019-04-22T06:02:36.059Z,59.70
2019-04-22T06:04:46.305Z,59.80
2019-04-22T06:07:13.658Z,59.80
2019-04-22T06:09:54.435Z,59.90
2019-04-22T06:12:17.456Z,60.00
2019-04-22T06:14:54.329Z,60.40
2019-04-22T06:17:31.710Z,60.30
2019-04-22T06:19:57.463Z,60.60
2019-04-22T06:22:41.743Z,60.50
2019-04-22T06:25:01.213Z,60.30
2019-04-22T06:27:38.695Z,60.20
2019-04-22T06:30:07.663Z,60.00
2019-04-22T06:32:31.441Z,59.90
2019-04-22T06:35:16.674Z,60.10
2019-04-22T06:37:43.419Z,59.90
2019-04-22T06:40:13.078Z,59.70
2019-04-22T06:42:42.520Z,59.70
2019-04-22T06:45:21.878Z,59.50
2019-04-22T06:47:59.177Z,59.50
2019-04-22T06:50:31.479Z,59.40
2019-04-22T06:52:51.953Z,59.40
2019-04-22T06:55:23.276Z,59.50
2019-04-22T06:57:53.274Z,59.40
2019-04-22T07:00:28.891Z,59.30
2019-04-22T07:03:26.829Z,60.10
2019-04-22T07:05:27.559Z,59.50
2019-04-22T07:08:14.353Z,59.40
2019-04-22T07:10:35.138Z,59.30
2019-04-22T07:13:01.207Z,59.20
2019-04-22T07:15:46.646Z,59.20
2019-04-22T07:18:11.494Z,59.10
2019-04-22T07:20:48.935Z,59.00
2019-04-22T07:23:15.465Z,59.30
2019-04-22T07:28:17.717Z,59.10
2019-04-22T07:30:47.215Z,59.10
2019-04-22T07:33:26.247Z,59.10
2019-04-22T07:38:25.682Z,58.90
2019-04-22T07:40:51.212Z,58.80
2019-04-22T07:45:56.484Z,58.40
2019-04-22T07:48:44.874Z,58.50
2019-04-22T07:53:33.976Z,58.40
2019-04-22T07:56:16.741Z,58.40
2019-04-22T07:58:43.539Z,58.80
2019-04-22T08:01:19.129Z,58.80
2019-04-22T08:06:17.234Z,58.50
2019-04-22T08:08:58.269Z,58.20
2019-04-22T08:11:42.301Z,58.00
2019-04-22T08:13:54.661Z,58.00
2019-04-22T08:16:25.093Z,58.10
2019-04-22T08:19:04.129Z,57.80
2019-04-22T08:21:29.826Z,57.90
2019-04-22T08:24:04.557Z,57.90
2019-04-22T08:26:32.070Z,57.80
2019-04-22T08:29:12.331Z,57.20
2019-04-22T08:31:42.035Z,57.50
2019-04-22T08:36:58.745Z,57.50
2019-04-22T08:39:15.378Z,57.70
2019-04-22T08:41:43.827Z,57.50
2019-04-22T08:44:17.398Z,57.40
2019-04-22T08:47:00.435Z,57.40
2019-04-22T08:49:30.454Z,57.60
2019-04-22T08:51:58.811Z,57.60
2019-04-22T08:54:28.349Z,57.30
2019-04-22T08:56:58.361Z,57.30
2019-04-22T08:59:46.877Z,57.40
2019-04-22T09:02:10.155Z,57.50
2019-04-22T09:04:31.376Z,57.30
2019-04-22T09:07:18.274Z,57.40
2019-04-22T09:09:42.530Z,57.50
2019-04-22T09:12:08.191Z,57.30
2019-04-22T09:14:43.458Z,56.90
2019-04-22T09:17:17.318Z,55.20
2019-04-22T09:19:43.624Z,55.60
2019-04-22T09:22:28.203Z,56.30
2019-04-22T09:24:46.872Z,56.40
2019-04-22T09:27:26.602Z,56.20
2019-04-22T09:29:50.074Z,56.10
2019-04-22T09:32:38.615Z,55.70
2019-04-22T09:34:51.507Z,55.70
2019-04-22T09:37:26.852Z,56.00
2019-04-22T09:39:59.644Z,56.60
2019-04-22T09:42:31.792Z,55.70
2019-04-22T09:45:04.691Z,55.90
2019-04-22T09:47:33.743Z,55.80
2019-04-22T09:50:01.475Z,55.80
2019-04-22T09:52:37.669Z,55.50
2019-04-22T09:55:12.451Z,55.50
2019-04-22T09:57:51.653Z,55.50
2019-04-22T10:00:10.878Z,56.10
2019-04-22T10:07:44.887Z,55.90
2019-04-22T10:10:18.800Z,56.10
2019-04-22T10:12:46.596Z,56.00
2019-04-22T10:15:19.583Z,55.80
2019-04-22T10:18:04.883Z,54.80
2019-04-22T10:20:38.756Z,54.90
2019-04-22T10:23:17.753Z,55.10
2019-04-22T10:25:50.872Z,54.40
2019-04-22T10:28:15.585Z,54.80
2019-04-22T10:30:47.053Z,55.20
2019-04-22T10:33:11.684Z,55.30
2019-04-22T10:35:28.737Z,55.00
2019-04-22T10:37:58.392Z,55.10
2019-04-22T10:40:30.274Z,54.70
2019-04-22T10:43:01.177Z,55.10
2019-04-22T10:45:32.357Z,55.50
2019-04-22T10:48:03.936Z,55.90
2019-04-22T10:50:46.591Z,55.80
2019-04-22T10:53:19.721Z,55.70
2019-04-22T10:55:51.692Z,55.50
2019-04-22T10:58:22.829Z,55.90
2019-04-22T11:00:54.238Z,55.70
2019-04-22T11:03:24.710Z,55.80
2019-04-22T11:05:54.892Z,55.80
2019-04-22T11:08:37.905Z,55.90
2019-04-22T11:11:10.458Z,56.00
2019-04-22T11:13:28.383Z,56.00
2019-04-22T11:16:03.466Z,55.60
2019-04-22T11:18:31.648Z,55.70
2019-04-22T11:21:01.939Z,55.40
2019-04-22T11:23:32.487Z,55.80
2019-04-22T11:26:03.775Z,56.00
2019-04-22T11:28:35.716Z,56.00
2019-04-22T11:31:06.253Z,55.50
2019-04-22T11:33:36.457Z,55.60
2019-04-22T11:36:07.954Z,55.50
2019-04-22T11:38:48.689Z,55.20
2019-04-22T11:41:09.668Z,55.10
2019-04-22T11:43:41.182Z,55.60
2019-04-22T11:46:11.752Z,55.60
2019-04-22T11:48:42.416Z,55.00
2019-04-22T11:51:13.821Z,55.40
2019-04-22T11:53:45.111Z,54.20
2019-04-22T11:56:16.628Z,52.50
2019-04-22T11:58:47.010Z,52.70
2019-04-22T12:01:17.311Z,52.90
2019-04-22T12:03:47.393Z,52.20
2019-04-22T12:06:18.087Z,51.80
2019-04-22T12:08:49.918Z,51.20
2019-04-22T12:11:20.632Z,52.30
2019-04-22T12:13:51.817Z,52.70
2019-04-22T12:16:23.203Z,51.60
2019-04-22T12:18:53.501Z,51.70
2019-04-22T12:21:23.798Z,51.70
2019-04-22T12:23:54.993Z,51.10
2019-04-22T12:26:26.582Z,51.90
2019-04-22T12:28:57.243Z,52.70
2019-04-22T12:31:27.542Z,52.70
2019-04-22T12:34:01.443Z,52.20
2019-04-22T12:36:32.718Z,52.70
2019-04-22T12:39:03.283Z,53.20
2019-04-22T12:41:33.881Z,52.20
2019-04-22T12:44:07.290Z,52.80
2019-04-22T12:46:39.318Z,53.10
2019-04-22T12:49:09.959Z,53.30
2019-04-22T12:51:40.977Z,53.40
2019-04-22T12:54:13.022Z,53.20
2019-04-22T12:56:43.987Z,53.30
2019-04-22T12:59:14.419Z,53.50
2019-04-22T13:01:44.702Z,53.80
2019-04-22T13:04:17.568Z,53.50
2019-04-22T13:06:48.039Z,53.10
2019-04-22T13:09:19.479Z,53.30
2019-04-22T13:11:51.131Z,53.50
2019-04-22T13:14:21.291Z,53.30
2019-04-22T13:16:51.330Z,53.50
2019-04-22T13:19:23.121Z,53.50
2019-04-22T13:21:54.410Z,53.10
2019-04-22T13:24:25.791Z,53.50
2019-04-22T13:26:57.083Z,53.00
2019-04-22T13:29:27.649Z,53.00
2019-04-22T13:31:58.579Z,52.70
2019-04-22T13:34:34.876Z,52.70
2019-04-22T13:37:01.145Z,53.00
2019-04-22T13:39:31.483Z,53.10
2019-04-22T13:42:05.605Z,53.50
2019-04-22T13:44:33.540Z,53.80
2019-04-22T13:47:19.759Z,53.00
2019-04-22T13:50:28.285Z,52.50
2019-04-22T13:54:06.515Z,51.70
2019-04-22T13:55:10.429Z,51.10
2019-04-22T13:57:27.607Z,52.20
2019-04-22T13:59:50.699Z,51.40
2019-04-22T14:02:19.145Z,51.30
2019-04-22T14:04:50.778Z,51.50
2019-04-22T14:07:20.955Z,52.40
2019-04-22T14:09:51.041Z,51.10
2019-04-22T14:12:21.768Z,51.30
2019-04-22T14:14:52.602Z,51.00
2019-04-22T14:17:23.243Z,52.00
2019-04-22T14:19:54.844Z,52.20
2019-04-22T14:22:26.251Z,52.70
2019-04-22T14:24:56.472Z,51.60
2019-04-22T14:27:38.172Z,52.00
2019-04-22T14:29:59.546Z,52.30
2019-04-22T14:32:31.831Z,52.70
2019-04-22T14:35:01.115Z,52.90
2019-04-22T14:37:32.171Z,52.40
2019-04-22T14:40:07.099Z,52.30
2019-04-22T14:42:52.030Z,52.50
2019-04-22T14:45:42.333Z,52.50
2019-04-22T14:48:05.827Z,52.40
2019-04-22T14:50:29.324Z,53.20
2019-04-22T14:53:03.920Z,52.90
2019-04-22T14:55:22.859Z,53.30
2019-04-22T14:57:49.073Z,52.30
2019-04-22T15:00:22.041Z,52.30
2019-04-22T15:02:52.319Z,52.40
2019-04-22T15:05:23.822Z,52.60
2019-04-22T15:07:55.043Z,53.60
2019-04-22T15:10:26.220Z,53.70
2019-04-22T15:12:58.771Z,53.30
2019-04-22T15:15:42.063Z,53.00
2019-04-22T15:18:28.239Z,53.20
2019-04-22T15:21:02.761Z,52.70
2019-04-22T15:23:34.836Z,52.90
2019-04-22T15:26:06.413Z,52.80
2019-04-22T15:28:37.443Z,53.30
2019-04-22T15:31:09.009Z,53.60
2019-04-22T15:33:39.604Z,53.60
2019-04-22T15:36:10.018Z,53.60
2019-04-22T15:38:40.547Z,53.10
2019-04-22T15:41:12.647Z,53.70
2019-04-22T15:43:43.690Z,54.40
2019-04-22T15:46:14.153Z,53.10
2019-04-22T15:48:44.436Z,53.00
2019-04-22T15:51:14.559Z,52.60
2019-04-22T15:53:45.461Z,53.00
2019-04-22T15:56:16.736Z,53.30
2019-04-22T15:58:48.586Z,53.10
2019-04-22T16:01:25.908Z,53.80
2019-04-22T16:03:50.320Z,54.50
2019-04-22T16:06:21.925Z,54.40
2019-04-22T16:08:54.080Z,53.70
2019-04-22T16:11:24.241Z,54.90
2019-04-22T16:13:54.757Z,54.70
2019-04-22T16:16:24.969Z,54.50
2019-04-22T16:18:56.161Z,54.10
2019-04-22T16:21:32.729Z,54.20
2019-04-22T16:24:15.953Z,53.70
2019-04-22T16:26:48.523Z,54.10
2019-04-22T16:29:19.204Z,53.50
2019-04-22T16:31:49.540Z,53.60
2019-04-22T16:34:19.670Z,53.90
2019-04-22T16:36:49.587Z,54.20
2019-04-22T16:39:20.713Z,54.70
2019-04-22T16:41:52.794Z,53.80
2019-04-22T16:44:22.681Z,54.20
2019-04-22T16:46:53.123Z,54.10
2019-04-22T16:49:25.908Z,54.40
2019-04-22T16:51:56.198Z,53.50
2019-04-22T16:54:27.807Z,55.10
2019-04-22T16:56:57.900Z,54.40
2019-04-22T16:59:28.786Z,54.50
2019-04-22T17:02:16.698Z,54.40
2019-04-22T17:04:51.504Z,54.80
2019-04-22T17:07:22.399Z,54.80
2019-04-22T17:09:52.561Z,54.80
2019-04-22T17:12:23.772Z,54.50
2019-04-22T17:14:59.753Z,54.80
2019-04-22T17:17:26.625Z,54.50
2019-04-22T17:19:57.643Z,55.00
2019-04-22T17:22:29.356Z,55.30
2019-04-22T17:25:00.233Z,55.30
2019-04-22T17:27:32.430Z,55.30
2019-04-22T17:30:02.481Z,55.30
2019-04-22T17:32:33.654Z,55.10
2019-04-22T17:35:06.374Z,55.00
2019-04-22T17:37:38.903Z,55.20
2019-04-22T17:40:29.808Z,55.20
2019-04-22T17:43:00.929Z,55.20
2019-04-22T17:45:43.630Z,55.20
2019-04-22T17:48:22.289Z,55.10
2019-04-22T17:51:07.610Z,55.50
2019-04-22T17:53:38.414Z,55.50
2019-04-22T17:56:02.534Z,55.60
2019-04-22T17:58:36.007Z,55.50
2019-04-22T18:01:09.197Z,55.50
2019-04-22T18:03:26.787Z,55.60
2019-04-22T18:05:54.178Z,55.70
2019-04-22T18:08:42.212Z,55.80
2019-04-22T18:11:20.098Z,55.90
2019-04-22T18:13:44.340Z,56.00
2019-04-22T18:16:18.253Z,56.30
2019-04-22T18:18:47.696Z,56.10
2019-04-22T18:21:14.711Z,56.10
2019-04-22T18:23:39.982Z,56.10
2019-04-22T18:26:22.920Z,56.20
2019-04-22T18:28:54.319Z,55.90
2019-04-22T18:31:17.447Z,56.30
2019-04-22T18:33:50.405Z,56.40
2019-04-22T18:36:23.845Z,56.40
2019-04-22T18:39:04.883Z,56.70
2019-04-22T18:41:28.890Z,56.60
2019-04-22T18:44:06.261Z,56.90
2019-04-22T18:46:32.961Z,56.80
2019-04-22T18:49:03.415Z,57.10
2019-04-22T18:51:43.846Z,56.70
2019-04-22T18:54:31.072Z,57.30
2019-04-22T18:57:07.168Z,57.40
2019-04-22T18:59:25.635Z,57.80
2019-04-22T19:01:52.323Z,57.70
2019-04-22T19:04:27.451Z,57.90
2019-04-22T19:07:16.897Z,58.10
2019-04-22T19:09:51.664Z,58.20
2019-04-22T19:15:01.760Z,58.00
2019-04-22T19:20:00.137Z,58.50
2019-04-22T19:22:27.330Z,58.50
2019-04-22T19:24:47.320Z,60.90
2019-04-22T19:27:26.835Z,62.90
2019-04-22T19:29:57.745Z,61.80
2019-04-22T19:32:34.012Z,60.80
2019-04-22T19:34:59.961Z,60.50
2019-04-22T19:37:29.929Z,60.10
2019-04-22T19:40:10.014Z,60.00
2019-04-22T19:42:49.528Z,60.40
2019-04-22T19:45:05.868Z,60.20
2019-04-22T19:47:48.138Z,60.10
2019-04-22T19:50:21.351Z,60.00
2019-04-22T19:52:44.690Z,60.40
2019-04-22T19:55:18.209Z,60.60
2019-04-22T19:57:46.238Z,60.50
2019-04-22T20:00:14.492Z,61.10
2019-04-22T20:02:51.180Z,60.70
2019-04-22T20:05:37.207Z,60.70
2019-04-22T20:08:07.231Z,61.00
2019-04-22T20:10:32.693Z,61.30
2019-04-22T20:13:07.635Z,61.40
2019-04-22T20:15:30.651Z,62.00
2019-04-22T20:20:49.066Z,61.70
2019-04-22T20:23:10.109Z,62.30
2019-04-22T20:25:40.748Z,62.60
2019-04-22T20:28:19.703Z,62.60
2019-04-22T20:30:46.164Z,62.40
2019-04-22T20:33:25.977Z,62.70
2019-04-22T20:35:51.374Z,62.90
2019-04-22T20:38:18.465Z,62.40
2019-04-22T20:40:57.463Z,62.70
2019-04-22T20:43:38.970Z,63.20
2019-04-22T20:46:03.111Z,62.90
2019-04-22T20:48:28.652Z,63.50
2019-04-22T20:50:57.934Z,63.30
2019-04-22T20:53:37.956Z,63.10
2019-04-22T20:56:05.130Z,63.30
2019-04-22T20:58:32.778Z,63.20
2019-04-22T21:01:02.689Z,64.10
2019-04-22T21:03:29.445Z,64.00
2019-04-22T21:06:06.877Z,63.90
2019-04-22T21:08:44.203Z,63.60
2019-04-22T21:11:11.547Z,64.20
2019-04-22T21:13:46.626Z,64.70
2019-04-22T21:16:22.390Z,64.00
2019-04-22T21:18:47.381Z,64.00
2019-04-22T21:21:25.088Z,64.00
2019-04-22T21:23:47.696Z,64.30
2019-04-22T21:26:24.355Z,64.00
2019-04-22T21:29:01.206Z,64.50
2019-04-22T21:31:33.717Z,64.40
2019-04-22T21:34:04.160Z,64.60
2019-04-22T21:36:35.369Z,64.80
2019-04-22T21:39:05.276Z,65.10
2019-04-22T21:41:36.840Z,65.20
2019-04-22T21:44:12.481Z,65.20
2019-04-22T21:46:42.488Z,65.10
2019-04-22T21:49:16.617Z,65.10
2019-04-22T21:51:49.350Z,65.10
2019-04-22T21:54:22.087Z,65.00
2019-04-22T21:57:04.393Z,65.00
2019-04-22T21:59:27.077Z,64.60
2019-04-22T22:01:56.822Z,64.90
2019-04-22T22:04:25.047Z,65.20
2019-04-22T22:06:52.528Z,64.90
2019-04-22T22:09:31.170Z,65.00
2019-04-22T22:12:01.101Z,64.80
2019-04-22T22:14:33.111Z,65.10
2019-04-22T22:16:56.228Z,64.60
2019-04-22T22:19:37.963Z,64.90
2019-04-22T22:22:15.154Z,65.20
2019-04-22T22:24:43.648Z,64.70
2019-04-22T22:27:17.228Z,64.70
2019-04-22T22:32:18.269Z,65.20
2019-04-22T22:34:53.368Z,65.30
2019-04-22T22:37:12.260Z,64.80
2019-04-22T22:39:39.251Z,65.20
2019-04-22T22:42:01.939Z,65.10
2019-04-22T22:44:36.827Z,65.10
2019-04-22T22:47:18.282Z,65.10
2019-04-22T22:49:58.661Z,65.30
2019-04-22T22:54:58.919Z,64.80
2019-04-22T22:57:33.731Z,65.10
2019-04-22T23:00:01.749Z,65.20
2019-04-22T23:02:36.756Z,64.90
2019-04-22T23:05:05.883Z,65.00
2019-04-22T23:07:42.796Z,64.90
2019-04-22T23:10:06.140Z,65.00
2019-04-22T23:12:51.614Z,65.00
2019-04-22T23:15:12.430Z,64.90
2019-04-22T23:17:26.097Z,65.20
2019-04-22T23:19:56.018Z,65.10
2019-04-22T23:22:35.440Z,65.10
2019-04-22T23:25:25.454Z,65.40
2019-04-22T23:27:56.619Z,65.60
2019-04-22T23:30:39.025Z,65.40
2019-04-22T23:33:24.612Z,65.40
2019-04-22T23:36:03.821Z,65.60
2019-04-22T23:38:47.928Z,65.50
2019-04-22T23:41:42.728Z,65.20
2019-04-22T23:44:10.009Z,65.10
2019-04-22T23:46:38.207Z,65.30
2019-04-22T23:49:08.514Z,65.60
2019-04-22T23:51:55.584Z,65.50
2019-04-22T23:56:49.347Z,65.80
2019-04-22T23:59:38.643Z,65.70
